Time;durP1;ratioP1;P1;durP2;ratioP2;P2;SDS_P1;SDS_P2;PMS_P1;PMS_P2;Temp;Humidity;BMP_temperature;BMP_pressure;BME280_temperature;BME280_humidity;BME280_pressure;Samples;Min_cycle;Max_cycle;Signal;HPM_P1;HPM_P2
2022/01/05 00:00:29;;;;;;;8.75;2.58;;;4.10;99.90;;;;;;5135143;27;20231;-57
2022/01/05 00:02:55;;;;;;;8.13;3.00;;;4.00;99.90;;;;;;5136077;27;20187;-57
2022/01/05 00:05:21;;;;;;;12.30;3.00;;;3.80;99.90;;;;;;5117905;27;20187;-57
2022/01/05 00:07:46;;;;;;;7.30;3.13;;;3.90;99.90;;;;;;5136536;27;20263;-57
2022/01/05 00:10:12;;;;;;;8.63;2.73;;;3.80;99.90;;;;;;5135888;27;20198;-57
2022/01/05 00:12:38;;;;;;;5.93;2.63;;;3.70;99.90;;;;;;5134667;27;20171;-57
2022/01/05 00:15:05;;;;;;;10.57;3.47;;;3.70;99.90;;;;;;5136101;27;20167;-57
2022/01/05 00:17:31;;;;;;;7.22;3.17;;;3.50;99.90;;;;;;5135895;27;20231;-57
2022/01/05 00:19:57;;;;;;;8.90;3.60;;;3.50;99.90;;;;;;5135969;27;20233;-57
2022/01/05 00:22:23;;;;;;;11.57;3.60;;;3.40;99.90;;;;;;5135995;27;20343;-57
2022/01/05 00:24:49;;;;;;;9.73;3.63;;;3.50;99.90;;;;;;5134710;27;20176;-57
2022/01/05 00:27:15;;;;;;;11.20;4.60;;;3.30;99.90;;;;;;5135819;27;20173;-57
2022/01/05 00:29:40;;;;;;;14.57;5.10;;;3.60;99.90;;;;;;5136067;27;20656;-57
2022/01/05 00:32:07;;;;;;;12.70;5.03;;;3.60;99.90;;;;;;5135759;27;20184;-57
2022/01/05 00:34:33;;;;;;;14.03;4.93;;;3.70;99.90;;;;;;5135639;27;20208;-58
2022/01/05 00:36:59;;;;;;;14.23;4.97;;;3.70;99.90;;;;;;5135604;27;20248;-57
2022/01/05 00:39:25;;;;;;;10.13;4.23;;;3.60;99.90;;;;;;5135522;27;20199;-57
2022/01/05 00:41:50;;;;;;;11.77;4.30;;;3.70;99.90;;;;;;5135871;27;20180;-57
2022/01/05 00:44:16;;;;;;;12.57;4.30;;;3.70;99.90;;;;;;5135230;27;20171;-57
2022/01/05 00:46:42;;;;;;;11.33;4.17;;;3.70;99.90;;;;;;5135286;27;20187;-57
2022/01/05 00:49:07;;;;;;;10.07;4.13;;;3.70;99.90;;;;;;5135341;27;20211;-57
2022/01/05 00:51:33;;;;;;;14.83;3.80;;;3.70;99.90;;;;;;5135168;27;20253;-57
2022/01/05 00:53:59;;;;;;;8.20;3.80;;;3.70;99.90;;;;;;5135383;27;20176;-57
2022/01/05 00:56:24;;;;;;;11.03;3.67;;;3.60;99.90;;;;;;5134021;27;20652;-57
2022/01/05 00:58:50;;;;;;;9.27;3.47;;;3.40;99.90;;;;;;5135491;27;20171;-57
2022/01/05 01:01:16;;;;;;;7.60;3.43;;;3.50;99.90;;;;;;5134804;27;20730;-57
2022/01/05 01:03:41;;;;;;;9.47;3.27;;;3.40;99.90;;;;;;5135425;27;20188;-57
2022/01/05 01:06:07;;;;;;;7.80;3.00;;;3.40;99.90;;;;;;5134814;27;20180;-57
2022/01/05 01:08:33;;;;;;;9.10;3.20;;;3.40;99.90;;;;;;5116437;27;20182;-58
2022/01/05 01:10:58;;;;;;;9.47;3.10;;;3.40;99.90;;;;;;5135019;27;20204;-58
2022/01/05 01:13:24;;;;;;;11.13;3.67;;;3.40;99.90;;;;;;5134920;27;20255;-58
2022/01/05 01:15:51;;;;;;;8.20;2.80;;;3.30;99.90;;;;;;5134567;27;20183;-57
2022/01/05 01:18:18;;;;;;;9.17;3.47;;;3.40;99.90;;;;;;5134901;27;20534;-58
2022/01/05 01:20:47;;;;;;;7.77;2.87;;;3.40;99.90;;;;;;5134775;27;20203;-58
2022/01/05 01:23:13;;;;;;;8.20;3.20;;;3.30;99.90;;;;;;5134821;27;20187;-57
2022/01/05 01:25:39;;;;;;;11.10;3.10;;;3.30;99.90;;;;;;5134894;27;20203;-57
2022/01/05 01:28:06;;;;;;;7.95;3.38;;;3.30;99.90;;;;;;5133610;27;20214;-57
2022/01/05 01:30:32;;;;;;;11.27;3.57;;;3.30;99.90;;;;;;5134671;27;20183;-57
2022/01/05 01:32:58;;;;;;;11.47;3.40;;;3.30;99.90;;;;;;5134604;27;20180;-57
2022/01/05 01:35:25;;;;;;;12.83;3.70;;;3.40;99.90;;;;;;5134639;27;20274;-57
2022/01/05 01:37:51;;;;;;;11.87;3.77;;;3.40;99.90;;;;;;5134567;27;20180;-57
2022/01/05 01:40:18;;;;;;;9.77;3.90;;;3.40;99.90;;;;;;5134219;27;20196;-57
2022/01/05 01:42:44;;;;;;;10.50;3.30;;;3.40;99.90;;;;;;5134248;27;20270;-57
2022/01/05 01:45:10;;;;;;;7.87;3.53;;;3.30;99.90;;;;;;5134541;27;20256;-57
2022/01/05 01:47:35;;;;;;;12.90;3.77;;;3.30;99.90;;;;;;5134899;27;20266;-57
2022/01/05 01:50:01;;;;;;;15.63;3.67;;;3.30;99.90;;;;;;5134177;27;20652;-57
2022/01/05 01:52:27;;;;;;;8.93;3.40;;;3.30;99.90;;;;;;5134532;27;20224;-57
2022/01/05 01:54:53;;;;;;;9.63;3.37;;;3.20;99.90;;;;;;5134443;28;20220;-57
2022/01/05 01:57:20;;;;;;;9.20;3.10;;;3.10;99.90;;;;;;5134141;28;20540;-57
2022/01/05 01:59:47;;;;;;;7.30;2.97;;;3.00;99.90;;;;;;5134853;27;20208;-57
2022/01/05 02:02:15;;;;;;;11.00;3.40;;;3.10;99.90;;;;;;5138613;27;20210;-57
2022/01/05 02:04:43;;;;;;;9.63;3.17;;;3.00;99.90;;;;;;5137358;27;20175;-57
2022/01/05 02:07:09;;;;;;;10.63;3.57;;;3.00;99.90;;;;;;5138670;27;20175;-57
2022/01/05 02:09:35;;;;;;;11.27;3.37;;;3.00;99.90;;;;;;5138536;27;20180;-57
2022/01/05 02:12:01;;;;;;;10.27;3.23;;;2.90;99.90;;;;;;5138498;27;20267;-57
2022/01/05 02:14:26;;;;;;;11.13;3.30;;;2.90;99.90;;;;;;5138782;27;20586;-57
2022/01/05 02:16:52;;;;;;;8.47;2.60;;;2.80;99.90;;;;;;5138145;27;20637;-57
2022/01/05 02:19:18;;;;;;;10.83;3.20;;;2.80;99.90;;;;;;5138238;27;20207;-57
2022/01/05 02:21:43;;;;;;;9.67;3.00;;;2.80;99.90;;;;;;5138296;27;20176;-57
2022/01/05 02:24:10;;;;;;;7.97;2.70;;;2.80;99.90;;;;;;5137072;27;20264;-57
2022/01/05 02:26:38;;;;;;;7.73;2.43;;;2.80;99.90;;;;;;5138440;27;20221;-57
2022/01/05 02:29:05;;;;;;;9.33;2.80;;;2.80;99.90;;;;;;5138169;27;20258;-57
2022/01/05 02:31:31;;;;;;;7.80;2.90;;;2.70;99.90;;;;;;5138403;27;20268;-57
2022/01/05 02:33:56;;;;;;;13.13;3.33;;;2.70;99.90;;;;;;5137750;27;20207;-57
2022/01/05 02:36:22;;;;;;;9.13;2.90;;;2.60;99.90;;;;;;5138068;27;20215;-57
2022/01/05 02:38:49;;;;;;;9.07;2.87;;;2.60;99.90;;;;;;5136748;27;20528;-57
2022/01/05 02:41:15;;;;;;;12.23;2.97;;;2.60;99.90;;;;;;5137862;27;20264;-57
2022/01/05 02:43:43;;;;;;;10.70;3.50;;;2.60;99.90;;;;;;5137959;27;20175;-57
2022/01/05 02:46:13;;;;;;;8.40;2.80;;;2.50;99.90;;;;;;5137619;27;20184;-57
2022/01/05 02:48:40;;;;;;;11.70;3.33;;;2.70;99.90;;;;;;5137591;27;20537;-57
2022/01/05 02:51:06;;;;;;;9.23;3.03;;;2.70;99.90;;;;;;5137715;27;20173;-57
2022/01/05 02:53:33;;;;;;;9.60;3.10;;;2.70;99.90;;;;;;5137666;27;20243;-57
2022/01/05 02:55:59;;;;;;;7.23;2.70;;;2.60;99.90;;;;;;5137675;27;20746;-57
2022/01/05 02:58:25;;;;;;;8.00;2.87;;;2.60;99.90;;;;;;5137228;27;20171;-57
2022/01/05 03:00:51;;;;;;;10.37;3.00;;;2.60;99.90;;;;;;5137473;27;20196;-57
2022/01/05 03:03:17;;;;;;;10.20;2.77;;;2.60;99.90;;;;;;5137238;27;20179;-58
2022/01/05 03:05:43;;;;;;;10.77;2.90;;;2.60;99.90;;;;;;5137459;27;20179;-57
2022/01/05 03:08:08;;;;;;;10.53;3.03;;;2.60;99.90;;;;;;5137091;27;20633;-57
2022/01/05 03:10:34;;;;;;;12.57;3.13;;;2.70;99.90;;;;;;5137280;27;20233;-57
2022/01/05 03:13:00;;;;;;;10.93;2.90;;;2.70;99.90;;;;;;5137595;27;20509;-58
2022/01/05 03:15:26;;;;;;;8.70;2.77;;;2.70;99.90;;;;;;5137287;27;20621;-58
2022/01/05 03:17:52;;;;;;;10.10;3.27;;;2.60;99.90;;;;;;5138581;27;20201;-58
2022/01/05 03:20:18;;;;;;;9.27;2.40;;;2.70;99.90;;;;;;5139981;27;20196;-57
2022/01/05 03:22:44;;;;;;;8.63;2.80;;;2.70;99.90;;;;;;5137659;27;20182;-57
2022/01/05 03:25:16;;;;;;;13.17;2.60;;;2.60;99.90;;;;;;5136871;27;20205;-57
2022/01/05 03:27:47;;;;;;;13.23;2.87;;;2.50;99.90;;;;;;5137167;27;20189;-57
2022/01/05 03:30:16;;;;;;;11.93;2.93;;;2.50;99.90;;;;;;5136987;27;20232;-57
2022/01/05 03:33:06;;;;;;;6.57;2.30;;;2.40;99.90;;;;;;5135675;27;20620;-57
2022/01/05 03:35:34;;;;;;;8.30;3.07;;;2.40;99.90;;;;;;5136433;27;20284;-57
2022/01/05 03:38:00;;;;;;;7.33;2.60;;;2.50;99.90;;;;;;5136982;27;20164;-57
2022/01/05 03:40:27;;;;;;;11.20;2.80;;;2.50;99.90;;;;;;5136426;27;20313;-57
2022/01/05 03:42:52;;;;;;;11.57;3.23;;;2.50;99.90;;;;;;5135443;27;20552;-57
2022/01/05 03:45:19;;;;;;;12.10;2.90;;;2.50;99.90;;;;;;5136787;27;20172;-57
2022/01/05 03:47:45;;;;;;;14.53;3.17;;;2.50;99.90;;;;;;5136842;27;20204;-57
2022/01/05 03:50:10;;;;;;;10.23;3.13;;;2.60;99.90;;;;;;5136291;27;20207;-57
2022/01/05 03:52:36;;;;;;;14.33;3.20;;;2.70;99.90;;;;;;5135997;27;20188;-57
2022/01/05 03:55:04;;;;;;;10.70;2.90;;;2.60;99.90;;;;;;5136514;27;20267;-57
2022/01/05 03:57:29;;;;;;;12.50;2.83;;;2.70;99.90;;;;;;5136418;27;20187;-57
2022/01/05 03:59:55;;;;;;;8.03;3.27;;;2.70;99.90;;;;;;5136080;27;20572;-57
2022/01/05 04:02:21;;;;;;;9.17;3.20;;;2.60;99.90;;;;;;5136078;27;20181;-57
2022/01/05 04:04:47;;;;;;;11.17;2.77;;;2.60;99.90;;;;;;5136016;27;20629;-57
2022/01/05 04:07:14;;;;;;;8.17;3.23;;;2.60;99.90;;;;;;5136220;27;20228;-57
2022/01/05 04:09:39;;;;;;;10.67;2.67;;;2.60;99.90;;;;;;5136521;27;20188;-57
2022/01/05 04:12:05;;;;;;;13.87;2.73;;;2.60;99.90;;;;;;5134969;27;20176;-58
2022/01/05 04:14:31;;;;;;;10.97;2.97;;;2.60;99.90;;;;;;5136138;27;20177;-58
2022/01/05 04:16:57;;;;;;;7.93;2.77;;;2.60;99.90;;;;;;5134373;27;20189;-57
2022/01/05 04:19:23;;;;;;;8.77;2.60;;;2.50;99.90;;;;;;5135941;27;20184;-57
2022/01/05 04:21:49;;;;;;;10.73;2.67;;;2.40;99.90;;;;;;5135418;27;20248;-57
2022/01/05 04:24:15;;;;;;;8.67;2.80;;;2.40;99.90;;;;;;5135968;27;20173;-57
2022/01/05 04:26:40;;;;;;;12.17;3.03;;;2.40;99.90;;;;;;5135875;27;20176;-57
2022/01/05 04:29:06;;;;;;;10.57;2.80;;;2.40;99.90;;;;;;5135561;27;20172;-58
2022/01/05 04:31:32;;;;;;;8.90;2.90;;;2.40;99.90;;;;;;5135521;27;20217;-57
2022/01/05 04:33:57;;;;;;;6.57;2.17;;;2.30;99.90;;;;;;5135385;27;20313;-57
2022/01/05 04:36:23;;;;;;;10.53;3.03;;;2.40;99.90;;;;;;5117308;27;20183;-58
2022/01/05 04:38:48;;;;;;;11.13;3.30;;;2.30;99.90;;;;;;5135588;27;20180;-57
2022/01/05 04:41:14;;;;;;;9.40;2.67;;;2.40;99.90;;;;;;5135269;27;20722;-57
2022/01/05 04:43:40;;;;;;;9.67;3.40;;;2.40;99.90;;;;;;5135543;27;20199;-58
2022/01/05 04:46:05;;;;;;;9.60;2.93;;;2.40;99.90;;;;;;5135472;27;20211;-57
2022/01/05 04:48:31;;;;;;;12.27;3.47;;;2.40;99.90;;;;;;5134207;27;20663;-57
2022/01/05 04:50:57;;;;;;;10.23;3.23;;;2.50;99.90;;;;;;5134270;27;20183;-58
2022/01/05 04:53:23;;;;;;;7.27;3.00;;;2.50;99.90;;;;;;5135081;27;20186;-57
2022/01/05 04:55:48;;;;;;;10.27;3.33;;;2.40;99.90;;;;;;5135276;27;20255;-58
2022/01/05 04:58:14;;;;;;;10.60;3.07;;;2.40;99.90;;;;;;5135034;27;20169;-57
2022/01/05 05:00:40;;;;;;;11.70;3.63;;;2.40;99.90;;;;;;5133982;27;20200;-58
2022/01/05 05:03:05;;;;;;;13.03;3.53;;;2.40;99.90;;;;;;5135125;27;20699;-57
2022/01/05 05:05:31;;;;;;;16.53;4.13;;;2.40;99.90;;;;;;5133977;27;20531;-57
2022/01/05 05:07:59;;;;;;;10.47;3.23;;;2.40;99.90;;;;;;5135624;27;20165;-57
2022/01/05 05:10:25;;;;;;;13.40;3.70;;;2.40;99.90;;;;;;5135384;27;20208;-57
2022/01/05 05:12:51;;;;;;;13.83;3.70;;;2.50;99.90;;;;;;5135741;27;20207;-57
2022/01/05 05:15:16;;;;;;;12.00;2.97;;;2.50;99.90;;;;;;5135016;27;20169;-57
2022/01/05 05:17:42;;;;;;;13.00;3.70;;;2.50;99.90;;;;;;5134367;27;20620;-57
2022/01/05 05:20:08;;;;;;;9.80;3.60;;;2.50;99.90;;;;;;5133542;27;20678;-57
2022/01/05 05:22:35;;;;;;;15.00;3.50;;;2.50;99.90;;;;;;5134796;27;20172;-57
2022/01/05 05:25:02;;;;;;;10.73;3.40;;;2.40;99.90;;;;;;5134749;27;20189;-57
2022/01/05 05:27:27;;;;;;;9.30;3.53;;;2.40;99.90;;;;;;5134691;27;20656;-57
2022/01/05 05:29:53;;;;;;;10.17;3.47;;;2.40;99.90;;;;;;5134807;27;20179;-57
2022/01/05 05:32:19;;;;;;;9.87;3.10;;;2.40;99.90;;;;;;5133498;27;20224;-57
2022/01/05 05:34:45;;;;;;;8.77;3.60;;;2.50;99.90;;;;;;5133915;27;20172;-57
2022/01/05 05:37:11;;;;;;;12.03;3.37;;;2.50;99.90;;;;;;5134335;27;20261;-57
2022/01/05 05:39:36;;;;;;;16.87;3.60;;;2.60;99.90;;;;;;5134553;27;20583;-57
2022/01/05 05:42:02;;;;;;;12.77;3.40;;;2.70;99.90;;;;;;5134915;27;20188;-57
2022/01/05 05:44:28;;;;;;;11.53;3.20;;;2.80;99.90;;;;;;5134526;27;20637;-57
2022/01/05 05:46:53;;;;;;;9.03;3.40;;;2.80;99.90;;;;;;5133154;27;20268;-58
2022/01/05 05:49:19;;;;;;;9.50;3.37;;;2.90;99.90;;;;;;5134511;28;20173;-57
2022/01/05 05:51:44;;;;;;;10.47;2.90;;;2.80;99.90;;;;;;5134193;27;20207;-57
2022/01/05 05:54:10;;;;;;;9.43;3.33;;;2.80;99.90;;;;;;5134514;28;20614;-57
2022/01/05 05:56:36;;;;;;;12.10;3.70;;;2.60;99.90;;;;;;5134435;28;20256;-57
2022/01/05 05:59:01;;;;;;;14.50;3.87;;;2.70;99.90;;;;;;5116218;28;20370;-57
2022/01/05 06:01:28;;;;;;;11.50;3.67;;;2.90;99.90;;;;;;5134349;28;20200;-57
2022/01/05 06:03:54;;;;;;;14.23;3.97;;;2.90;99.90;;;;;;5134031;27;20183;-57
2022/01/05 06:06:20;;;;;;;10.50;3.23;;;3.10;99.90;;;;;;5134321;28;20648;-57
2022/01/05 06:08:46;;;;;;;9.23;3.63;;;3.00;99.90;;;;;;5134288;28;20172;-57
2022/01/05 06:11:11;;;;;;;11.03;3.10;;;3.00;99.90;;;;;;5134232;28;20651;-57
2022/01/05 06:13:37;;;;;;;13.67;3.67;;;3.10;99.90;;;;;;5133079;28;20184;-58
2022/01/05 06:16:03;;;;;;;9.73;3.37;;;3.20;99.90;;;;;;5132809;28;20509;-55
2022/01/05 06:18:29;;;;;;;12.37;3.90;;;3.20;99.90;;;;;;5134267;28;20532;-55
2022/01/05 06:20:54;;;;;;;8.43;3.20;;;3.10;99.90;;;;;;5134094;28;20661;-55
2022/01/05 06:23:20;;;;;;;9.83;3.67;;;3.30;99.90;;;;;;5115917;28;20183;-55
2022/01/05 06:25:45;;;;;;;12.03;3.87;;;3.40;99.90;;;;;;5132893;28;20225;-56
2022/01/05 06:28:11;;;;;;;14.10;4.07;;;3.60;99.90;;;;;;5134085;27;20257;-55
2022/01/05 06:30:40;;;;;;;12.40;4.17;;;3.50;99.90;;;;;;5134105;28;20186;-55
2022/01/05 06:33:06;;;;;;;10.60;3.77;;;3.60;99.90;;;;;;5134048;28;20214;-54
2022/01/05 06:35:32;;;;;;;18.43;4.03;;;3.60;99.90;;;;;;5132605;28;20206;-56
2022/01/05 06:37:58;;;;;;;9.50;3.93;;;3.60;99.90;;;;;;5115635;28;20215;-56
2022/01/05 06:40:24;;;;;;;11.77;3.77;;;3.50;99.90;;;;;;5133817;28;20220;-55
2022/01/05 06:42:50;;;;;;;13.50;3.10;;;3.50;99.90;;;;;;5133512;28;20506;-55
2022/01/05 06:45:16;;;;;;;11.47;2.90;;;3.40;99.90;;;;;;5133535;27;20187;-55
2022/01/05 06:47:41;;;;;;;9.53;3.20;;;3.30;99.90;;;;;;5135720;27;20190;-56
2022/01/05 06:50:09;;;;;;;15.10;3.03;;;3.30;99.90;;;;;;5117889;27;20640;-55
2022/01/05 06:52:34;;;;;;;9.77;2.83;;;3.30;99.90;;;;;;5116507;28;20181;-55
2022/01/05 06:55:00;;;;;;;12.13;2.73;;;3.20;99.90;;;;;;5116154;28;20187;-55
2022/01/05 06:57:26;;;;;;;9.90;2.77;;;3.30;99.90;;;;;;5115468;28;20263;-55
2022/01/05 06:59:51;;;;;;;11.83;3.00;;;3.50;99.90;;;;;;5114470;28;20200;-56
2022/01/05 07:02:17;;;;;;;11.47;2.90;;;3.50;99.90;;;;;;5117700;28;20322;-55
2022/01/05 07:04:43;;;;;;;12.47;3.20;;;3.60;99.90;;;;;;5122199;28;20180;-56
2022/01/05 07:07:08;;;;;;;12.13;3.17;;;3.70;99.90;;;;;;5115739;28;20177;-55
2022/01/05 07:09:34;;;;;;;15.63;3.20;;;3.70;99.90;;;;;;5116779;28;20565;-56
2022/01/05 07:12:00;;;;;;;15.43;3.30;;;3.80;99.90;;;;;;5116172;28;20180;-56
2022/01/05 07:14:25;;;;;;;11.13;2.87;;;3.80;99.90;;;;;;5116423;28;20176;-55
2022/01/05 07:16:51;;;;;;;12.30;3.20;;;3.70;99.90;;;;;;5131518;27;20287;-56
2022/01/05 07:19:19;;;;;;;11.03;2.90;;;4.00;99.90;;;;;;5136905;27;20195;-55
2022/01/05 07:21:46;;;;;;;11.47;2.70;;;4.00;99.90;;;;;;5136589;27;20644;-56
2022/01/05 07:24:16;;;;;;;10.27;3.40;;;4.10;99.90;;;;;;5136852;27;20230;-57
2022/01/05 07:26:41;;;;;;;12.53;3.20;;;4.20;99.90;;;;;;5135142;27;20505;-55
2022/01/05 07:29:07;;;;;;;14.97;3.10;;;4.20;99.90;;;;;;5135010;27;20188;-57
2022/01/05 07:31:33;;;;;;;13.27;2.93;;;4.30;99.90;;;;;;5136552;27;20176;-57
2022/01/05 07:33:59;;;;;;;10.20;3.15;;;4.40;99.90;;;;;;5137047;27;20169;-57
2022/01/05 07:36:24;;;;;;;11.90;3.22;;;4.20;99.90;;;;;;5137203;27;20271;-56
2022/01/05 07:38:50;;;;;;;10.20;3.60;;;4.30;99.90;;;;;;5136876;27;20653;-57
2022/01/05 07:41:16;;;;;;;15.30;3.47;;;4.30;99.90;;;;;;5135487;27;20204;-57
2022/01/05 07:43:41;;;;;;;9.68;3.47;;;4.40;99.90;;;;;;5136626;27;20179;-57
2022/01/05 07:46:07;;;;;;;12.47;2.93;;;4.40;99.90;;;;;;5135215;27;20538;-57
2022/01/05 07:48:33;;;;;;;12.60;3.67;;;4.40;99.90;;;;;;5135380;27;20188;-57
2022/01/05 07:50:58;;;;;;;12.43;3.37;;;4.50;99.90;;;;;;5136636;27;20266;-57
2022/01/05 07:53:24;;;;;;;11.30;3.10;;;4.50;99.90;;;;;;5127782;27;20246;-58
2022/01/05 07:55:50;;;;;;;8.80;3.15;;;4.40;99.90;;;;;;5115909;28;20183;-57
2022/01/05 07:58:16;;;;;;;14.30;3.67;;;4.40;99.90;;;;;;5114604;28;20184;-57
2022/01/05 08:00:42;;;;;;;14.00;3.40;;;4.50;99.90;;;;;;5115444;27;20258;-57
2022/01/05 08:03:07;;;;;;;9.43;3.40;;;4.50;99.90;;;;;;5115723;28;20173;-57
2022/01/05 08:05:33;;;;;;;15.50;3.43;;;4.40;99.90;;;;;;5115646;28;20228;-57
2022/01/05 08:07:59;;;;;;;14.75;4.00;;;4.50;99.90;;;;;;5097381;28;20252;-57
2022/01/05 08:10:24;;;;;;;17.30;3.80;;;4.60;99.90;;;;;;5115451;28;20184;-57
2022/01/05 08:12:50;;;;;;;11.23;3.80;;;4.60;99.90;;;;;;5115537;28;20278;-57
2022/01/05 08:15:16;;;;;;;10.20;3.65;;;4.60;99.90;;;;;;5115515;28;20176;-57
2022/01/05 08:17:42;;;;;;;15.10;4.13;;;4.60;99.90;;;;;;5113829;28;20553;-57
2022/01/05 08:20:12;;;;;;;12.95;4.22;;;4.80;99.90;;;;;;5115340;28;20667;-57
2022/01/05 08:22:40;;;;;;;12.80;3.90;;;4.80;99.90;;;;;;5115231;27;20176;-57
2022/01/05 08:25:11;;;;;;;11.07;3.90;;;4.80;99.90;;;;;;5115259;28;20172;-57
2022/01/05 08:27:37;;;;;;;14.15;3.47;;;4.90;99.90;;;;;;5115719;28;20176;-57
2022/01/05 08:30:06;;;;;;;13.35;3.78;;;4.90;99.90;;;;;;5115165;28;20185;-57
2022/01/05 08:32:32;;;;;;;15.75;3.55;;;5.00;99.90;;;;;;5115092;28;20230;-57
2022/01/05 08:34:59;;;;;;;11.45;3.63;;;5.00;99.90;;;;;;5115064;28;20210;-57
2022/01/05 08:37:24;;;;;;;14.15;3.53;;;4.90;99.90;;;;;;5115066;28;20183;-57
2022/01/05 08:39:51;;;;;;;12.07;3.35;;;5.00;99.90;;;;;;5115143;28;20200;-57
2022/01/05 08:42:18;;;;;;;14.80;4.22;;;5.20;99.90;;;;;;5114892;28;20184;-58
2022/01/05 08:44:43;;;;;;;17.80;3.83;;;5.20;99.90;;;;;;5114828;28;20642;-57
2022/01/05 08:47:09;;;;;;;15.10;3.85;;;5.20;99.90;;;;;;5113272;28;20184;-57
2022/01/05 08:49:35;;;;;;;11.13;4.00;;;5.20;99.90;;;;;;5114515;28;20176;-58
2022/01/05 08:52:01;;;;;;;16.23;3.97;;;5.30;99.90;;;;;;5115118;28;20233;-57
2022/01/05 08:54:26;;;;;;;16.45;3.70;;;5.40;99.90;;;;;;5114826;28;20184;-57
2022/01/05 08:56:54;;;;;;;9.73;3.30;;;5.40;99.90;;;;;;5115465;28;20195;-57
2022/01/05 08:59:20;;;;;;;13.43;4.07;;;5.40;99.90;;;;;;5114778;28;20236;-57
2022/01/05 09:01:46;;;;;;;10.57;3.38;;;5.40;99.90;;;;;;5114304;28;20267;-57
2022/01/05 09:04:12;;;;;;;13.50;4.40;;;5.50;99.90;;;;;;5114562;28;20267;-57
2022/01/05 09:06:38;;;;;;;11.18;3.47;;;5.60;99.90;;;;;;5113096;28;20184;-57
2022/01/05 09:09:04;;;;;;;13.73;4.22;;;5.60;99.90;;;;;;5114620;28;20180;-57
2022/01/05 09:11:30;;;;;;;16.10;4.07;;;5.70;99.90;;;;;;5114018;28;20180;-57
2022/01/05 09:13:55;;;;;;;9.70;4.10;;;5.80;99.90;;;;;;5114401;28;20199;-57
2022/01/05 09:16:21;;;;;;;11.80;3.47;;;5.80;99.90;;;;;;5114306;28;20196;-57
2022/01/05 09:18:47;;;;;;;11.82;4.15;;;5.80;99.90;;;;;;5113055;28;20172;-57
2022/01/05 09:21:13;;;;;;;14.23;4.70;;;5.90;99.90;;;;;;5114146;28;20295;-57
2022/01/05 09:23:38;;;;;;;13.87;4.03;;;5.90;99.90;;;;;;5114188;28;20617;-57
2022/01/05 09:26:04;;;;;;;14.77;4.28;;;6.00;99.90;;;;;;5114201;28;20168;-57
2022/01/05 09:28:30;;;;;;;11.57;4.32;;;5.90;99.90;;;;;;5114027;28;20221;-57
2022/01/05 09:30:55;;;;;;;11.75;4.10;;;6.00;99.90;;;;;;5114065;28;20177;-57
2022/01/05 09:33:24;;;;;;;16.58;4.70;;;6.00;99.90;;;;;;5114040;28;20247;-57
2022/01/05 09:35:59;;;;;;;15.77;4.82;;;5.90;99.90;;;;;;5114047;28;20183;-57
2022/01/05 09:41:56;;;;;;;15.23;4.68;;;6.00;99.90;;;;;;5113586;28;20160;-57
2022/01/05 09:44:11;;;;;;;12.57;4.35;;;6.00;99.90;;;;;;5113949;28;20176;-57
2022/01/05 09:46:36;;;;;;;13.88;4.05;;;6.00;99.90;;;;;;5113637;28;20181;-57
2022/01/05 09:49:24;;;;;;;17.73;4.07;;;6.20;99.90;;;;;;5113487;28;20660;-57
2022/01/05 09:51:53;;;;;;;14.30;3.50;;;6.20;99.90;;;;;;5113771;28;20258;-57
2022/01/05 09:54:19;;;;;;;17.10;4.15;;;6.20;99.90;;;;;;5113782;28;20172;-57
2022/01/05 09:56:45;;;;;;;13.60;3.40;;;6.20;99.90;;;;;;5113386;28;20181;-57
2022/01/05 09:59:11;;;;;;;11.93;3.45;;;6.20;99.90;;;;;;5113763;28;20203;-57
2022/01/05 10:01:37;;;;;;;17.58;3.22;;;6.30;99.90;;;;;;5131225;28;20204;-57
2022/01/05 10:04:04;;;;;;;13.00;3.72;;;6.40;99.90;;;;;;5113748;28;20271;-57
2022/01/05 10:06:34;;;;;;;12.73;3.42;;;6.60;99.90;;;;;;5112853;28;20227;-57
2022/01/05 10:09:00;;;;;;;13.25;3.33;;;6.60;99.90;;;;;;5113636;28;20177;-57
2022/01/05 10:11:27;;;;;;;11.20;2.85;;;6.70;99.90;;;;;;5113226;28;20326;-57
2022/01/05 10:13:53;;;;;;;11.02;3.33;;;6.70;99.90;;;;;;5113631;28;20170;-57
2022/01/05 10:16:18;;;;;;;14.07;3.97;;;6.80;99.90;;;;;;5113587;28;20195;-57
2022/01/05 10:18:45;;;;;;;13.70;3.30;;;6.80;99.90;;;;;;5113348;28;20616;-57
2022/01/05 10:21:14;;;;;;;9.77;2.97;;;6.80;99.90;;;;;;5115819;28;20704;-57
2022/01/05 10:23:52;;;;;;;14.85;3.95;;;7.00;99.90;;;;;;5117610;28;20188;-57
2022/01/05 10:26:18;;;;;;;13.10;4.20;;;7.10;99.90;;;;;;5117507;28;20259;-57
2022/01/05 10:28:47;;;;;;;13.27;3.15;;;7.10;99.90;;;;;;5117574;28;20207;-57
2022/01/05 10:31:15;;;;;;;13.55;3.58;;;7.00;99.90;;;;;;5117442;28;20190;-57
2022/01/05 10:33:40;;;;;;;11.75;3.08;;;7.00;99.90;;;;;;5117464;28;20162;-57
2022/01/05 10:36:06;;;;;;;11.75;3.33;;;7.00;99.90;;;;;;5117353;28;20256;-57
2022/01/05 10:38:32;;;;;;;10.70;3.30;;;7.00;99.90;;;;;;5117439;28;20187;-58
2022/01/05 10:40:57;;;;;;;14.15;3.55;;;7.00;99.90;;;;;;5117371;28;20204;-57
2022/01/05 10:43:23;;;;;;;11.55;3.65;;;7.10;99.90;;;;;;5118370;28;20180;-58
2022/01/05 10:45:51;;;;;;;13.60;4.43;;;7.10;99.90;;;;;;5117929;28;20177;-57
2022/01/05 10:48:19;;;;;;;11.95;3.38;;;7.20;99.90;;;;;;5117009;28;20172;-58
2022/01/05 10:50:50;;;;;;;16.70;4.65;;;7.20;99.90;;;;;;5117157;28;20180;-57
2022/01/05 10:53:20;;;;;;;11.90;3.20;;;7.30;99.90;;;;;;5117196;28;20188;-57
2022/01/05 10:55:47;;;;;;;14.95;3.58;;;7.30;99.90;;;;;;5116860;28;20227;-57
2022/01/05 10:58:18;;;;;;;9.60;3.40;;;7.40;99.90;;;;;;5116920;28;20185;-57
2022/01/05 11:00:52;;;;;;;12.98;3.25;;;7.30;99.90;;;;;;5116870;28;20642;-57
2022/01/05 11:03:39;;;;;;;12.80;2.88;;;7.30;99.90;;;;;;5117139;28;20168;-58
2022/01/05 11:06:10;;;;;;;15.05;3.30;;;7.30;99.90;;;;;;5116834;28;20210;-58
2022/01/05 11:08:54;;;;;;;10.82;3.22;;;7.30;99.90;;;;;;5116473;28;20697;-57
2022/01/05 11:11:32;;;;;;;12.90;3.20;;;7.30;99.90;;;;;;5116760;28;20207;-57
2022/01/05 11:13:58;;;;;;;15.27;2.75;;;7.40;99.90;;;;;;5116891;28;20177;-57
2022/01/05 11:16:28;;;;;;;9.40;3.35;;;7.30;99.90;;;;;;5116199;28;20193;-57
2022/01/05 11:19:18;;;;;;;10.13;3.53;;;7.40;99.90;;;;;;5116671;28;20538;-57
2022/01/05 11:22:06;;;;;;;13.88;3.30;;;7.30;99.90;;;;;;5116486;28;20197;-57
2022/01/05 11:24:41;;;;;;;9.15;2.85;;;7.30;99.90;;;;;;5116438;28;20173;-57
2022/01/05 11:27:10;;;;;;;9.25;3.40;;;7.30;99.90;;;;;;5116702;28;20255;-57
2022/01/05 11:29:36;;;;;;;7.72;2.65;;;7.20;99.90;;;;;;5116438;28;20191;-57
2022/01/05 11:32:07;;;;;;;11.27;3.15;;;7.20;99.90;;;;;;5115040;28;20181;-57
2022/01/05 11:34:33;;;;;;;10.18;2.80;;;7.20;99.90;;;;;;5115990;28;20203;-57
2022/01/05 11:37:04;;;;;;;10.57;2.60;;;7.10;99.90;;;;;;5115959;27;20267;-57
2022/01/05 11:39:31;;;;;;;10.10;3.65;;;7.10;99.90;;;;;;5116311;28;20161;-57
2022/01/05 11:41:59;;;;;;;10.30;2.90;;;7.20;99.90;;;;;;5115905;28;20210;-57
2022/01/05 11:44:29;;;;;;;13.43;3.35;;;7.10;99.90;;;;;;5116078;28;20180;-57
2022/01/05 11:46:56;;;;;;;9.95;3.50;;;7.20;99.90;;;;;;5116107;28;20181;-57
2022/01/05 11:49:27;;;;;;;10.80;2.88;;;7.40;99.90;;;;;;5116046;28;20180;-57
2022/01/05 11:51:56;;;;;;;14.88;3.65;;;7.40;99.90;;;;;;5115932;28;20186;-57
2022/01/05 11:54:26;;;;;;;10.10;3.20;;;7.50;99.90;;;;;;5115856;28;20260;-57
2022/01/05 11:56:57;;;;;;;10.32;3.85;;;7.50;99.90;;;;;;5115736;28;20704;-57
2022/01/05 11:59:36;;;;;;;13.85;3.65;;;7.50;99.90;;;;;;5115639;28;20187;-57
2022/01/05 12:02:13;;;;;;;10.43;3.13;;;7.40;99.90;;;;;;5115794;28;20271;-57
2022/01/05 12:04:56;;;;;;;12.27;2.97;;;7.40;99.90;;;;;;5115481;28;20161;-57
2022/01/05 12:07:45;;;;;;;13.93;3.17;;;7.40;99.90;;;;;;5115348;28;20531;-57
2022/01/05 12:10:18;;;;;;;12.32;3.05;;;7.30;99.90;;;;;;5115595;28;20610;-57
2022/01/05 12:13:04;;;;;;;10.15;2.80;;;7.50;99.90;;;;;;5115505;27;20637;-57
2022/01/05 12:15:38;;;;;;;14.65;3.00;;;7.50;99.90;;;;;;5115670;28;20161;-57
2022/01/05 12:18:05;;;;;;;10.02;2.72;;;7.30;99.90;;;;;;5115542;28;20189;-57
2022/01/05 12:20:40;;;;;;;12.05;2.95;;;7.20;99.90;;;;;;5113955;28;20219;-58
2022/01/05 12:23:27;;;;;;;11.93;2.75;;;7.10;99.90;;;;;;5115371;28;20165;-57
2022/01/05 12:26:08;;;;;;;8.98;2.60;;;7.00;99.90;;;;;;5115308;28;20161;-57
2022/01/05 12:28:49;;;;;;;10.23;3.53;;;6.90;99.90;;;;;;5115312;28;20153;-57
2022/01/05 12:31:15;;;;;;;13.73;3.20;;;6.90;99.90;;;;;;5115213;28;20170;-58
2022/01/05 12:33:50;;;;;;;13.73;3.47;;;7.10;99.90;;;;;;5113869;28;20169;-58
2022/01/05 12:36:48;;;;;;;14.82;3.50;;;7.10;99.90;;;;;;5115252;28;20161;-57
2022/01/05 12:39:13;;;;;;;12.27;3.35;;;7.00;99.90;;;;;;5080733;27;20195;-57
2022/01/05 12:41:40;;;;;;;16.48;3.05;;;7.00;99.90;;;;;;5114987;28;20230;-57
2022/01/05 12:44:13;;;;;;;9.13;2.88;;;7.00;99.90;;;;;;5114512;28;20186;-57
2022/01/05 12:46:41;;;;;;;9.15;2.58;;;7.00;99.90;;;;;;5114938;27;20184;-57
2022/01/05 12:49:28;;;;;;;12.52;2.90;;;7.00;99.90;;;;;;5114889;28;20177;-57
2022/01/05 12:52:14;;;;;;;13.50;3.22;;;6.90;99.90;;;;;;5114855;28;20170;-57
2022/01/05 12:54:53;;;;;;;9.75;3.33;;;6.90;99.90;;;;;;5114792;28;20153;-57